Time;durP1;ratioP1;P1;durP2;ratioP2;P2;SDS_P1;SDS_P2;PMS_P1;PMS_P2;Temp;Humidity;BMP_temperature;BMP_pressure;BME280_temperature;BME280_humidity;BME280_pressure;Samples;Min_cycle;Max_cycle;Signal;HPM_P1;HPM_P2
2021/04/22 00:01:11;;;;;;;;;;;;;;;20.48;34.01;100176.72;4362550;32;19965;-57
2021/04/22 00:03:36;;;;;;;;;;;;;;;20.44;34.05;100170.56;4373941;32;19951;-57
2021/04/22 00:06:02;;;;;;;;;;;;;;;20.47;33.98;100167.03;4373471;32;19967;-56
2021/04/22 00:08:28;;;;;;;;;;;;;;;20.46;33.93;100170.53;4373344;32;20025;-56
2021/04/22 00:10:56;;;;;;;;;;;;;;;20.39;34.15;100169.59;4373154;32;19951;-57
2021/04/22 00:13:22;;;;;;;;;;;;;;;20.36;34.25;100162.53;4373158;32;19994;-57
2021/04/22 00:15:48;;;;;;;;;;;;;;;20.39;34.00;100171.38;4372882;32;19965;-57
2021/04/22 00:18:14;;;;;;;;;;;;;;;20.36;34.07;100178.38;4373673;32;20324;-58
2021/04/22 00:20:39;;;;;;;;;;;;;;;20.35;34.12;100170.47;4373130;32;19947;-57
2021/04/22 00:23:05;;;;;;;;;;;;;;;20.35;34.02;100176.63;4372564;32;20428;-57
2021/04/22 00:25:31;;;;;;;;;;;;;;;20.37;34.13;100176.66;4373565;32;19967;-57
2021/04/22 00:27:57;;;;;;;;;;;;;;;20.34;34.26;100176.63;4359735;32;19966;-57
2021/04/22 00:30:24;;;;;;;;;;;;;;;20.35;33.96;100183.69;4356856;32;20062;-57
2021/04/22 00:32:49;;;;;;;;;;;;;;;20.35;34.14;100178.41;4360460;32;19963;-57
2021/04/22 00:35:15;;;;;;;;;;;;;;;20.34;33.80;100177.50;4358225;32;20001;-57
2021/04/22 00:37:41;;;;;;;;;;;;;;;20.31;34.00;100179.22;4365575;32;19970;-55
2021/04/22 00:40:07;;;;;;;;;;;;;;;20.34;33.95;100193.34;4357004;32;20344;-56
2021/04/22 00:42:33;;;;;;;;;;;;;;;20.39;33.98;100196.06;4357717;32;20280;-57
2021/04/22 00:44:59;;;;;;;;;;;;;;;20.32;33.99;100196.87;4358073;32;19959;-54
2021/04/22 00:47:25;;;;;;;;;;;;;;;20.45;33.21;100177.59;4366183;32;20346;-57
2021/04/22 00:49:51;;;;;;;;;;;;;;;20.45;33.51;100190.84;4372819;32;19956;-56
2021/04/22 00:52:17;;;;;;;;;;;;;;;20.45;33.57;100189.94;4373203;32;19950;-57
2021/04/22 00:54:43;;;;;;;;;;;;;;;20.36;33.77;100201.31;4373152;32;19947;-56
2021/04/22 00:57:08;;;;;;;;;;;;;;;20.32;33.74;100200.41;4366326;32;19986;-57
2021/04/22 00:59:34;;;;;;;;;;;;;;;20.36;33.98;100198.69;4358136;32;19955;-57
2021/04/22 01:02:00;;;;;;;;;;;;;;;20.35;33.63;100204.84;4364098;32;19969;-57
2021/04/22 01:04:26;;;;;;;;;;;;;;;20.32;33.86;100210.97;4372303;32;19943;-57
2021/04/22 01:06:52;;;;;;;;;;;;;;;20.28;33.76;100214.47;4372999;32;20366;-57
2021/04/22 01:09:18;;;;;;;;;;;;;;;20.32;33.83;100207.47;4372443;32;19970;-57
2021/04/22 01:11:44;;;;;;;;;;;;;;;20.28;33.75;100213.56;4372061;32;19958;-57
2021/04/22 01:14:10;;;;;;;;;;;;;;;20.28;34.01;100218.84;4372542;32;20328;-57
2021/04/22 01:16:36;;;;;;;;;;;;;;;20.33;33.58;100210.09;4372045;32;20249;-57
2021/04/22 01:19:02;;;;;;;;;;;;;;;20.30;33.70;100217.09;4372740;32;19947;-57
2021/04/22 01:21:28;;;;;;;;;;;;;;;20.27;33.81;100222.38;4372066;32;19951;-57
2021/04/22 01:23:54;;;;;;;;;;;;;;;20.28;33.27;100227.69;4373014;32;19993;-57
2021/04/22 01:26:20;;;;;;;;;;;;;;;20.30;34.02;100223.31;4372305;32;20423;-56
2021/04/22 01:28:46;;;;;;;;;;;;;;;20.30;33.28;100222.41;4359563;32;19964;-56
2021/04/22 01:31:12;;;;;;;;;;;;;;;20.21;33.97;100234.69;4356914;32;19955;-57
2021/04/22 01:33:38;;;;;;;;;;;;;;;20.29;33.47;100241.78;4369129;32;19962;-55
2021/04/22 01:36:04;;;;;;;;;;;;;;;20.22;33.90;100236.44;4372332;32;20308;-57
2021/04/22 01:38:30;;;;;;;;;;;;;;;20.24;33.82;100239.09;4370974;32;19967;-57
2021/04/22 01:40:56;;;;;;;;;;;;;;;20.26;33.48;100241.75;4372001;32;19990;-57
2021/04/22 01:43:21;;;;;;;;;;;;;;;20.20;34.20;100243.47;4371700;32;20315;-57
2021/04/22 01:45:47;;;;;;;;;;;;;;;20.15;34.36;100242.53;4370745;32;20345;-57
2021/04/22 01:48:14;;;;;;;;;;;;;;;20.12;34.23;100253.06;4370881;32;20017;-57
2021/04/22 01:50:40;;;;;;;;;;;;;;;20.11;34.21;100243.38;4371926;32;19963;-55
2021/04/22 01:53:05;;;;;;;;;;;;;;;20.14;34.13;100247.81;4366013;32;19991;-57
2021/04/22 01:55:31;;;;;;;;;;;;;;;20.14;33.92;100248.69;4356422;32;19997;-57
2021/04/22 01:57:57;;;;;;;;;;;;;;;20.11;34.11;100259.22;4360819;32;19955;-58
2021/04/22 02:00:23;;;;;;;;;;;;;;;20.14;33.82;100253.97;4371321;32;20046;-57
2021/04/22 02:02:49;;;;;;;;;;;;;;;20.17;33.90;100259.28;4369092;32;19962;-57
2021/04/22 02:05:15;;;;;;;;;;;;;;;20.16;34.13;100267.22;4356814;32;19986;-57
2021/04/22 02:07:41;;;;;;;;;;;;;;;20.16;33.59;100269.88;4358617;32;19956;-55
2021/04/22 02:10:07;;;;;;;;;;;;;;;20.18;33.86;100273.41;4369876;32;19958;-57
2021/04/22 02:12:32;;;;;;;;;;;;;;;20.16;33.91;100283.94;4371825;32;20006;-57
2021/04/22 02:14:59;;;;;;;;;;;;;;;20.21;33.83;100287.56;4371761;32;20420;-57
2021/04/22 02:17:25;;;;;;;;;;;;;;;20.14;33.70;100292.75;4371706;32;19996;-57
2021/04/22 02:19:51;;;;;;;;;;;;;;;20.14;33.90;100296.28;4371511;32;19966;-55
2021/04/22 02:22:16;;;;;;;;;;;;;;;20.13;33.94;100299.78;4371508;32;20388;-58
2021/04/22 02:24:42;;;;;;;;;;;;;;;20.11;33.75;100300.63;4372025;32;19967;-57
2021/04/22 02:27:08;;;;;;;;;;;;;;;20.09;33.76;100298.00;4371322;32;19981;-57
2021/04/22 02:29:34;;;;;;;;;;;;;;;20.16;33.40;100301.59;4371706;32;19955;-57
2021/04/22 02:32:00;;;;;;;;;;;;;;;20.17;33.56;100311.28;4371564;32;20297;-57
2021/04/22 02:34:26;;;;;;;;;;;;;;;20.08;34.02;100312.94;4369173;32;20019;-54
2021/04/22 02:36:52;;;;;;;;;;;;;;;20.06;33.71;100308.50;4382652;32;20362;-57
2021/04/22 02:39:18;;;;;;;;;;;;;;;20.02;34.12;100304.06;4362393;32;19959;-57
2021/04/22 02:41:44;;;;;;;;;;;;;;;20.02;34.03;100311.97;4355950;32;19956;-57
2021/04/22 02:44:10;;;;;;;;;;;;;;;20.00;34.16;100306.69;4363504;32;20008;-57
2021/04/22 02:46:35;;;;;;;;;;;;;;;20.08;33.76;100307.66;4373001;32;19990;-58
2021/04/22 02:49:01;;;;;;;;;;;;;;;20.07;33.90;100320.88;4373668;32;20002;-58
2021/04/22 02:51:27;;;;;;;;;;;;;;;20.03;34.00;100319.03;4374105;32;19958;-57
2021/04/22 02:53:53;;;;;;;;;;;;;;;20.08;33.73;100320.00;4370305;32;20328;-57
2021/04/22 02:56:19;;;;;;;;;;;;;;;20.12;33.67;100315.63;4359272;32;19966;-57
2021/04/22 02:58:45;;;;;;;;;;;;;;;20.09;33.63;100321.78;4361998;32;20005;-57
2021/04/22 03:01:11;;;;;;;;;;;;;;;20.11;33.47;100321.78;4374105;32;20321;-57
2021/04/22 03:03:36;;;;;;;;;;;;;;;20.11;33.55;100316.50;4374868;32;19955;-57
2021/04/22 03:06:02;;;;;;;;;;;;;;;20.09;33.42;100313.84;4374706;32;19955;-51
2021/04/22 03:08:28;;;;;;;;;;;;;;;20.12;33.52;100324.44;4374068;32;19986;-57
2021/04/22 03:10:54;;;;;;;;;;;;;;;20.07;33.80;100320.88;4359091;32;19956;-57
2021/04/22 03:13:20;;;;;;;;;;;;;;;20.03;33.98;100332.25;4359303;32;20013;-57
2021/04/22 03:15:46;;;;;;;;;;;;;;;20.03;33.57;100324.31;4373722;32;19951;-57
2021/04/22 03:18:12;;;;;;;;;;;;;;;20.00;33.78;100319.91;4374151;32;20256;-54
2021/04/22 03:20:38;;;;;;;;;;;;;;;19.95;33.48;100337.44;4374000;32;19957;-55
2021/04/22 03:23:04;;;;;;;;;;;;;;;19.94;33.86;100331.28;4373831;32;20441;-56
2021/04/22 03:25:29;;;;;;;;;;;;;;;19.94;33.72;100333.03;4363122;32;19959;-56
2021/04/22 03:27:55;;;;;;;;;;;;;;;19.94;33.80;100339.22;4358905;32;19998;-57
2021/04/22 03:30:21;;;;;;;;;;;;;;;19.92;33.88;100346.22;4368278;32;19966;-57
2021/04/22 03:32:47;;;;;;;;;;;;;;;19.95;33.93;100342.72;4374483;32;19973;-56
2021/04/22 03:35:13;;;;;;;;;;;;;;;19.91;33.97;100352.34;4374268;32;19950;-57
2021/04/22 03:37:39;;;;;;;;;;;;;;;19.97;33.72;100348.06;4373767;32;19955;-57
2021/04/22 03:40:05;;;;;;;;;;;;;;;19.96;33.79;100348.91;4368753;32;20371;-57
2021/04/22 03:42:31;;;;;;;;;;;;;;;19.98;33.72;100349.81;4373772;32;19965;-57
2021/04/22 03:44:57;;;;;;;;;;;;;;;19.99;33.42;100348.94;4374133;32;20675;-57
2021/04/22 03:47:22;;;;;;;;;;;;;;;19.94;33.51;100352.44;4373666;32;20192;-56
2021/04/22 03:49:48;;;;;;;;;;;;;;;19.94;33.61;100352.44;4373037;32;19978;-58
2021/04/22 03:52:14;;;;;;;;;;;;;;;19.97;33.14;100359.50;4373958;32;19985;-58
2021/04/22 03:54:40;;;;;;;;;;;;;;;19.90;33.69;100363.78;4371029;32;20068;-57
2021/04/22 03:57:06;;;;;;;;;;;;;;;19.92;33.53;100369.09;4358111;32;19963;-58
2021/04/22 03:59:32;;;;;;;;;;;;;;;19.98;33.27;100373.63;4360658;32;19969;-58
2021/04/22 04:01:58;;;;;;;;;;;;;;;19.97;33.12;100372.72;4373792;32;20328;-58
2021/04/22 04:04:24;;;;;;;;;;;;;;;19.93;33.47;100381.47;4373804;32;19973;-57
2021/04/22 04:06:50;;;;;;;;;;;;;;;19.90;33.59;100371.69;4373848;32;20306;-57
2021/04/22 04:09:16;;;;;;;;;;;;;;;19.87;33.56;100376.94;4369874;32;19999;-57
2021/04/22 04:11:42;;;;;;;;;;;;;;;19.87;33.58;100384.88;4372349;32;20415;-58
2021/04/22 04:14:07;;;;;;;;;;;;;;;19.84;33.45;100384.84;4373614;32;20017;-58
2021/04/22 04:16:33;;;;;;;;;;;;;;;19.90;33.23;100384.03;4372622;32;19990;-58
2021/04/22 04:18:59;;;;;;;;;;;;;;;19.90;33.64;100390.19;4373768;32;19982;-57
2021/04/22 04:21:25;;;;;;;;;;;;;;;19.85;33.64;100389.25;4373211;32;19997;-57
2021/04/22 04:23:51;;;;;;;;;;;;;;;19.83;33.57;100401.56;4373731;32;20367;-58
2021/04/22 04:26:17;;;;;;;;;;;;;;;19.80;33.60;100396.22;4362838;32;19951;-58
2021/04/22 04:28:43;;;;;;;;;;;;;;;19.82;33.49;100398.91;4358071;32;19955;-58
2021/04/22 04:31:08;;;;;;;;;;;;;;;19.82;33.44;100404.19;4366420;32;19966;-58
2021/04/22 04:33:34;;;;;;;;;;;;;;;19.93;33.34;100413.19;4373079;32;20372;-55
2021/04/22 04:36:00;;;;;;;;;;;;;;;19.85;33.57;100410.41;4373715;32;19966;-58
2021/04/22 04:38:26;;;;;;;;;;;;;;;19.83;33.69;100417.44;4372960;32;20286;-57
2021/04/22 04:40:52;;;;;;;;;;;;;;;19.75;33.69;100426.97;4372256;32;19963;-56
2021/04/22 04:43:18;;;;;;;;;;;;;;;19.77;33.56;100422.59;4372543;32;19975;-57
2021/04/22 04:45:44;;;;;;;;;;;;;;;19.79;33.45;100442.00;4367305;32;19974;-55
2021/04/22 04:48:10;;;;;;;;;;;;;;;19.80;33.42;100443.78;4357734;32;20301;-58
2021/04/22 04:50:36;;;;;;;;;;;;;;;19.75;33.58;100446.34;4359171;32;20030;-58
2021/04/22 04:53:02;;;;;;;;;;;;;;;19.82;33.24;100439.44;4372350;32;20013;-56
2021/04/22 04:55:28;;;;;;;;;;;;;;;19.80;33.12;100442.03;4369482;32;21379;-57
2021/04/22 04:57:54;;;;;;;;;;;;;;;19.84;33.31;100455.28;4370274;32;19951;-57
2021/04/22 05:00:19;;;;;;;;;;;;;;;19.88;33.22;100462.41;4372738;32;20423;-57
2021/04/22 05:02:45;;;;;;;;;;;;;;;19.88;33.08;100467.69;4370020;32;19991;-58
2021/04/22 05:05:12;;;;;;;;;;;;;;;19.96;32.94;100465.22;4373351;32;19955;-58
2021/04/22 05:07:38;;;;;;;;;;;;;;;19.96;32.85;100466.09;4373832;32;19958;-57
2021/04/22 05:10:04;;;;;;;;;;;;;;;19.96;32.79;100470.50;4372147;32;20008;-57
2021/04/22 05:12:30;;;;;;;;;;;;;;;19.94;32.87;100476.66;4372694;32;19952;-58
2021/04/22 05:14:56;;;;;;;;;;;;;;;19.88;32.96;100472.97;4372403;32;19955;-58
2021/04/22 05:17:21;;;;;;;;;;;;;;;19.85;33.17;100488.78;4372517;32;19989;-56
2021/04/22 05:19:47;;;;;;;;;;;;;;;19.83;33.14;100491.41;4372807;32;19974;-58
2021/04/22 05:22:13;;;;;;;;;;;;;;;19.89;32.93;100495.91;4372435;32;19973;-58
2021/04/22 05:24:39;;;;;;;;;;;;;;;19.88;33.11;100495.00;4372992;32;19955;-57
2021/04/22 05:27:05;;;;;;;;;;;;;;;19.79;32.99;100500.12;4372492;32;20351;-56
2021/04/22 05:29:31;;;;;;;;;;;;;;;19.85;33.03;100508.19;4371863;32;19978;-56
2021/04/22 05:31:57;;;;;;;;;;;;;;;19.84;33.13;100506.41;4372245;32;19935;-58
2021/04/22 05:34:23;;;;;;;;;;;;;;;19.88;32.94;100502.03;4372755;32;20097;-58
2021/04/22 05:36:49;;;;;;;;;;;;;;;19.86;33.01;100516.97;4373420;32;19963;-54
2021/04/22 05:39:18;;;;;;;;;;;;;;;19.92;32.84;100517.09;4372006;32;20018;-58
2021/04/22 05:41:44;;;;;;;;;;;;;;;19.91;32.74;100515.31;4372719;32;20964;-58
2021/04/22 05:44:10;;;;;;;;;;;;;;;19.87;32.93;100522.31;4371943;32;19993;-57
2021/04/22 05:46:35;;;;;;;;;;;;;;;19.85;32.88;100531.97;4371710;32;19986;-57
2021/04/22 05:49:01;;;;;;;;;;;;;;;19.87;32.97;100535.53;4371543;32;19947;-58
2021/04/22 05:51:27;;;;;;;;;;;;;;;19.91;32.83;100537.34;4371871;32;19959;-58
2021/04/22 05:53:53;;;;;;;;;;;;;;;19.90;32.86;100543.50;4372946;32;19943;-57
2021/04/22 05:56:19;;;;;;;;;;;;;;;19.88;32.86;100542.59;4372619;32;19943;-57
2021/04/22 05:58:45;;;;;;;;;;;;;;;19.86;32.85;100548.69;4371822;32;19967;-58
2021/04/22 06:01:11;;;;;;;;;;;;;;;19.87;32.88;100551.38;4371462;32;19975;-56
2021/04/22 06:03:37;;;;;;;;;;;;;;;19.88;32.78;100553.16;4368967;32;19947;-57
2021/04/22 06:06:03;;;;;;;;;;;;;;;19.80;32.85;100557.41;4367972;32;20004;-51
2021/04/22 06:08:29;;;;;;;;;;;;;;;19.79;32.83;100558.28;4365507;32;19981;-57
2021/04/22 06:10:54;;;;;;;;;;;;;;;19.90;32.78;100561.12;4370195;32;19992;-57
2021/04/22 06:13:20;;;;;;;;;;;;;;;19.87;32.69;100561.03;4366718;32;20005;-56
2021/04/22 06:15:47;;;;;;;;;;;;;;;19.82;32.80;100568.91;4369878;32;20008;-58
2021/04/22 06:18:13;;;;;;;;;;;;;;;19.87;32.78;100571.63;4370082;32;20092;-57
2021/04/22 06:20:39;;;;;;;;;;;;;;;19.86;32.80;100581.31;4370159;32;19949;-57
2021/04/22 06:23:05;;;;;;;;;;;;;;;19.92;32.71;100581.44;4359514;32;19960;-57
2021/04/22 06:25:31;;;;;;;;;;;;;;;19.84;32.81;100590.06;4356586;32;19963;-55
2021/04/22 06:27:57;;;;;;;;;;;;;;;19.85;32.73;100590.09;4363671;32;20343;-56
2021/04/22 06:30:23;;;;;;;;;;;;;;;19.90;32.61;100590.19;4369282;32;20066;-57
2021/04/22 06:32:49;;;;;;;;;;;;;;;19.92;32.60;100597.28;4370914;32;19955;-58
2021/04/22 06:35:15;;;;;;;;;;;;;;;19.87;32.67;100580.44;4370235;32;19951;-57
2021/04/22 06:37:42;;;;;;;;;;;;;;;19.90;32.62;100588.41;4370489;32;19955;-57
2021/04/22 06:40:12;;;;;;;;;;;;;;;19.80;32.76;100586.47;4370247;32;19963;-57
2021/04/22 06:42:38;;;;;;;;;;;;;;;19.83;32.72;100594.47;4370273;32;19959;-57
2021/04/22 06:45:04;;;;;;;;;;;;;;;19.89;32.67;100596.34;4369276;32;19966;-55
2021/04/22 06:47:30;;;;;;;;;;;;;;;19.87;32.63;100596.31;4370996;32;20384;-58
2021/04/22 06:49:56;;;;;;;;;;;;;;;19.84;32.70;100593.63;4369112;32;19973;-57
2021/04/22 06:52:22;;;;;;;;;;;;;;;19.79;32.77;100593.53;4369866;32;19989;-57
2021/04/22 06:54:47;;;;;;;;;;;;;;;19.74;32.87;100595.19;4370841;32;19993;-58
2021/04/22 06:57:14;;;;;;;;;;;;;;;19.78;32.77;100594.41;4370067;32;19951;-57
2021/04/22 06:59:40;;;;;;;;;;;;;;;19.82;32.73;100599.72;4369182;32;20898;-57
2021/04/22 07:02:05;;;;;;;;;;;;;;;19.77;32.78;100599.63;4369971;32;20036;-57
2021/04/22 07:04:31;;;;;;;;;;;;;;;19.84;32.69;100600.63;4371161;32;20295;-57
2021/04/22 07:06:57;;;;;;;;;;;;;;;19.82;32.74;100611.19;4368247;32;19971;-58
2021/04/22 07:09:24;;;;;;;;;;;;;;;19.83;32.71;100607.69;4369266;32;20034;-57
2021/04/22 07:11:50;;;;;;;;;;;;;;;19.83;32.71;100617.38;4369630;32;20337;-54
2021/04/22 07:14:16;;;;;;;;;;;;;;;19.83;32.75;100620.00;4369471;32;19952;-57
2021/04/22 07:16:42;;;;;;;;;;;;;;;19.86;32.65;100623.59;4370623;32;20284;-56
2021/04/22 07:19:08;;;;;;;;;;;;;;;19.86;32.68;100627.97;4369909;32;19954;-56
2021/04/22 07:21:34;;;;;;;;;;;;;;;19.83;32.78;100631.47;4370286;32;19954;-57
2021/04/22 07:24:00;;;;;;;;;;;;;;;19.87;32.71;100635.94;4370608;32;20312;-55
2021/04/22 07:26:27;;;;;;;;;;;;;;;19.89;32.65;100634.22;4370096;32;19986;-57
2021/04/22 07:28:53;;;;;;;;;;;;;;;19.87;32.68;100635.94;4369487;32;19955;-56
2021/04/22 07:31:19;;;;;;;;;;;;;;;19.82;32.78;100629.69;4370124;32;19984;-58
2021/04/22 07:33:45;;;;;;;;;;;;;;;19.91;32.64;100632.50;4371421;32;19985;-53
2021/04/22 07:36:11;;;;;;;;;;;;;;;19.88;32.70;100626.25;4372212;32;19956;-59
2021/04/22 07:38:37;;;;;;;;;;;;;;;19.80;32.51;100626.13;4371309;32;19993;-57
2021/04/22 07:41:03;;;;;;;;;;;;;;;19.54;32.66;100630.91;4372817;32;19955;-53
2021/04/22 07:43:29;;;;;;;;;;;;;;;19.68;31.86;100629.44;4372060;32;19951;-56
2021/04/22 07:45:54;;;;;;;;;;;;;;;19.80;32.29;100628.75;4372467;32;20022;-58
2021/04/22 07:48:20;;;;;;;;;;;;;;;19.80;32.39;100634.03;4372413;32;20014;-56
2021/04/22 07:50:46;;;;;;;;;;;;;;;19.97;32.20;100630.88;4372324;32;20340;-59
2021/04/22 07:53:12;;;;;;;;;;;;;;;19.37;30.08;100635.00;4372495;32;19963;-56
2021/04/22 07:55:40;;;;;;;;;;;;;;;18.76;30.49;100637.13;4373206;32;20283;-53
2021/04/22 07:58:06;;;;;;;;;;;;;;;18.84;30.52;100635.56;4372146;32;20013;-55
2021/04/22 08:00:32;;;;;;;;;;;;;;;18.57;29.31;100635.81;4372284;32;19955;-56
2021/04/22 08:02:58;;;;;;;;;;;;;;;18.31;29.64;100636.06;4372865;32;20336;-55
2021/04/22 08:05:24;;;;;;;;;;;;;;;18.63;30.18;100639.47;4372170;32;20297;-57
2021/04/22 08:07:50;;;;;;;;;;;;;;;18.87;29.85;100635.62;4372036;32;19950;-57
2021/04/22 08:10:15;;;;;;;;;;;;;;;19.08;30.66;100637.91;4371907;32;19991;-57
2021/04/22 08:12:41;;;;;;;;;;;;;;;19.25;30.94;100634.72;4371760;32;19997;-58
2021/04/22 08:15:09;;;;;;;;;;;;;;;19.41;30.60;100638.59;4371932;32;19952;-56
2021/04/22 08:17:35;;;;;;;;;;;;;;;18.64;29.15;100641.28;4373039;32;19944;-57
2021/04/22 08:20:05;;;;;;;;;;;;;;;18.73;29.96;100648.53;4371170;32;19963;-56
2021/04/22 08:22:31;;;;;;;;;;;;;;;19.07;30.29;100644.03;4371734;32;20018;-55
2021/04/22 08:24:57;;;;;;;;;;;;;;;19.37;30.50;100649.94;4372987;32;19951;-57
2021/04/22 08:27:23;;;;;;;;;;;;;;;19.61;30.50;100643.38;4370666;32;20558;-57
2021/04/22 08:29:49;;;;;;;;;;;;;;;19.59;30.32;100645.09;4370337;32;19963;-56
2021/04/22 08:32:15;;;;;;;;;;;;;;;19.69;30.76;100656.72;4371599;32;20593;-57
2021/04/22 08:34:41;;;;;;;;;;;;;;;19.76;30.48;100653.34;4371322;32;19955;-55
2021/04/22 08:37:06;;;;;;;;;;;;;;;19.75;30.54;100663.00;4371079;32;19951;-56
2021/04/22 08:39:32;;;;;;;;;;;;;;;19.83;30.77;100652.62;4372229;32;19994;-57
2021/04/22 08:41:58;;;;;;;;;;;;;;;19.86;30.69;100650.03;4369678;32;20343;-57
2021/04/22 08:44:24;;;;;;;;;;;;;;;19.90;30.90;100650.97;4371060;32;19970;-57
2021/04/22 08:46:50;;;;;;;;;;;;;;;19.94;30.80;100650.19;4371745;32;19971;-57
2021/04/22 08:49:16;;;;;;;;;;;;;;;19.97;30.75;100652.03;4371407;32;19947;-57
2021/04/22 08:51:42;;;;;;;;;;;;;;;19.94;30.83;100653.75;4373169;32;20374;-57
2021/04/22 08:54:08;;;;;;;;;;;;;;;19.94;30.76;100648.47;4371049;32;19936;-57
2021/04/22 08:56:37;;;;;;;;;;;;;;;19.95;30.96;100654.63;4372238;32;20320;-57
2021/04/22 08:59:03;;;;;;;;;;;;;;;20.05;30.86;100653.03;4371785;32;20578;-57
2021/04/22 09:01:28;;;;;;;;;;;;;;;20.10;30.69;100654.03;4368866;32;20496;-57
2021/04/22 09:03:55;;;;;;;;;;;;;;;20.10;30.76;100654.03;4369788;32;19959;-59
2021/04/22 09:06:21;;;;;;;;;;;;;;;20.16;30.59;100655.88;4371270;32;19993;-57
2021/04/22 09:08:47;;;;;;;;;;;;;;;19.97;31.17;100652.03;4372492;32;19961;-58
2021/04/22 09:11:13;;;;;;;;;;;;;;;20.00;31.30;100654.72;4372295;32;20080;-55
2021/04/22 09:13:39;;;;;;;;;;;;;;;20.16;30.92;100650.59;4372555;32;20336;-57
2021/04/22 09:16:05;;;;;;;;;;;;;;;20.15;31.07;100652.34;4372166;32;19952;-57
2021/04/22 09:18:31;;;;;;;;;;;;;;;20.25;30.89;100657.78;4371954;32;20062;-58
2021/04/22 09:20:57;;;;;;;;;;;;;;;20.25;30.93;100658.69;4372264;32;19963;-58
2021/04/22 09:23:23;;;;;;;;;;;;;;;20.31;30.85;100657.87;4372525;32;20011;-56
2021/04/22 09:25:48;;;;;;;;;;;;;;;20.17;31.14;100653.25;4383927;32;19991;-59
2021/04/22 09:28:14;;;;;;;;;;;;;;;20.23;30.97;100649.81;4372142;32;19973;-57
2021/04/22 09:30:41;;;;;;;;;;;;;;;20.18;30.98;100647.09;4371367;32;20026;-57
2021/04/22 09:33:07;;;;;;;;;;;;;;;20.31;30.92;100647.31;4371869;32;19951;-57
2021/04/22 09:35:33;;;;;;;;;;;;;;;20.17;30.87;100640.03;4372688;32;20392;-58
2021/04/22 09:37:59;;;;;;;;;;;;;;;20.19;31.12;100646.25;4372272;32;19971;-56
2021/04/22 09:40:25;;;;;;;;;;;;;;;19.94;31.59;100648.47;4370962;32;19962;-55
2021/04/22 09:42:51;;;;;;;;;;;;;;;20.08;31.31;100642.53;4372851;32;19961;-56
2021/04/22 09:45:17;;;;;;;;;;;;;;;20.18;31.25;100647.09;4371647;32;20099;-57
2021/04/22 09:47:43;;;;;;;;;;;;;;;20.29;31.20;100638.47;4371898;32;19959;-56
2021/04/22 09:50:11;;;;;;;;;;;;;;;20.35;31.09;100641.22;4371870;32;20042;-54
2021/04/22 09:52:41;;;;;;;;;;;;;;;20.36;31.11;100640.34;4372621;32;19940;-55
2021/04/22 09:55:07;;;;;;;;;;;;;;;20.40;31.11;100647.47;4371728;32;20009;-57
2021/04/22 09:57:34;;;;;;;;;;;;;;;20.40;31.08;100642.19;4372221;32;19959;-54
2021/04/22 10:00:00;;;;;;;;;;;;;;;20.38;31.20;100638.62;4371074;32;19985;-53
2021/04/22 10:02:25;;;;;;;;;;;;;;;20.33;31.35;100651.75;4371534;32;19959;-54
2021/04/22 10:04:52;;;;;;;;;;;;;;;20.39;31.31;100644.81;4371434;32;19959;-53
2021/04/22 10:07:18;;;;;;;;;;;;;;;20.36;31.25;100645.66;4372019;32;19947;-53
2021/04/22 10:09:44;;;;;;;;;;;;;;;20.17;31.67;100639.16;4371392;32;20348;-53
2021/04/22 10:12:10;;;;;;;;;;;;;;;20.33;31.50;100640.31;4371161;32;19954;-52
2021/04/22 10:14:36;;;;;;;;;;;;;;;20.42;31.32;100626.34;4372053;32;19975;-52
2021/04/22 10:17:02;;;;;;;;;;;;;;;20.33;31.52;100640.31;4371556;32;19951;-54
2021/04/22 10:19:28;;;;;;;;;;;;;;;20.48;31.28;100635.25;4370861;32;20415;-54
2021/04/22 10:21:54;;;;;;;;;;;;;;;20.52;31.22;100635.31;4363048;32;20548;-52
2021/04/22 10:24:20;;;;;;;;;;;;;;;20.56;31.16;100634.47;4356826;32;20380;-52
2021/04/22 10:26:46;;;;;;;;;;;;;;;20.61;31.12;100627.50;4364067;32;20006;-53
2021/04/22 10:29:12;;;;;;;;;;;;;;;20.64;31.11;100630.19;4371075;32;19947;-54
2021/04/22 10:31:38;;;;;;;;;;;;;;;20.63;31.17;100628.44;4366597;32;19956;-51
2021/04/22 10:34:04;;;;;;;;;;;;;;;20.66;31.15;100631.09;4356664;32;19959;-52
2021/04/22 10:36:31;;;;;;;;;;;;;;;20.59;31.23;100621.31;4361830;32;19955;-53
2021/04/22 10:38:57;;;;;;;;;;;;;;;20.62;31.23;100618.72;4371208;32;19989;-49
2021/04/22 10:41:23;;;;;;;;;;;;;;;20.48;31.42;100619.38;4370960;32;20051;-54
2021/04/22 10:43:49;;;;;;;;;;;;;;;20.57;31.38;100620.41;4371858;32;19975;-53
2021/04/22 10:46:17;;;;;;;;;;;;;;;20.62;31.26;100626.66;4370855;32;20221;-55
2021/04/22 10:48:43;;;;;;;;;;;;;;;20.68;31.27;100620.56;4370453;32;20024;-52
2021/04/22 10:51:09;;;;;;;;;;;;;;;20.65;31.31;100616.09;4371179;32;19950;-52
2021/04/22 10:53:35;;;;;;;;;;;;;;;20.64;31.26;100625.81;4372145;32;19987;-54
2021/04/22 10:56:01;;;;;;;;;;;;;;;20.68;31.28;100617.91;4371815;32;19956;-51
2021/04/22 10:58:27;;;;;;;;;;;;;;;20.63;31.45;100607.25;4370924;32;19970;-49
2021/04/22 11:00:53;;;;;;;;;;;;;;;20.48;31.49;100619.38;4369462;32;20296;-53
2021/04/22 11:03:19;;;;;;;;;;;;;;;20.60;31.47;100620.44;4371019;32;19977;-52
2021/04/22 11:05:45;;;;;;;;;;;;;;;20.63;31.41;100623.13;4372388;32;19939;-53
2021/04/22 11:08:11;;;;;;;;;;;;;;;20.71;31.26;100616.22;4374016;32;19955;-52
2021/04/22 11:10:37;;;;;;;;;;;;;;;20.76;31.20;100619.81;4373678;32;19951;-51
2021/04/22 11:13:03;;;;;;;;;;;;;;;20.78;31.17;100606.59;4371779;32;19947;-51
2021/04/22 11:15:29;;;;;;;;;;;;;;;20.78;31.17;100612.75;4372634;32;20405;-51
2021/04/22 11:17:55;;;;;;;;;;;;;;;20.77;31.17;100615.41;4375529;32;19961;-54
2021/04/22 11:20:21;;;;;;;;;;;;;;;20.77;31.23;100611.00;4373480;32;19954;-51
2021/04/22 11:22:47;;;;;;;;;;;;;;;20.75;31.21;100609.22;4367521;32;19947;-49
2021/04/22 11:25:13;;;;;;;;;;;;;;;20.77;31.15;100608.34;4359713;32;19969;-54
2021/04/22 11:27:39;;;;;;;;;;;;;;;20.77;31.23;100599.53;4369776;32;19970;-50
2021/04/22 11:30:05;;;;;;;;;;;;;;;20.76;31.26;100608.34;4373237;32;19959;-52
2021/04/22 11:32:31;;;;;;;;;;;;;;;20.76;31.17;100595.97;4377856;32;20311;-52
2021/04/22 11:34:57;;;;;;;;;;;;;;;20.77;31.20;100599.53;4374242;32;19987;-53
2021/04/22 11:37:23;;;;;;;;;;;;;;;20.76;31.15;100598.62;4374541;32;20057;-51
2021/04/22 11:39:50;;;;;;;;;;;;;;;20.79;31.12;100603.09;4373865;32;19954;-51
2021/04/22 11:42:16;;;;;;;;;;;;;;;20.77;31.00;100603.06;4373690;32;20000;-53
2021/04/22 11:44:42;;;;;;;;;;;;;;;20.75;31.10;100591.56;4374361;32;19951;-51
2021/04/22 11:47:08;;;;;;;;;;;;;;;20.77;31.12;100595.12;4374117;32;19967;-51
2021/04/22 11:49:34;;;;;;;;;;;;;;;20.76;31.14;100588.03;4373922;32;20338;-50
2021/04/22 11:51:59;;;;;;;;;;;;;;;20.78;31.16;100586.31;4374735;32;20014;-48
2021/04/22 11:54:25;;;;;;;;;;;;;;;20.76;31.23;100600.41;4373904;32;19966;-50
2021/04/22 11:56:51;;;;;;;;;;;;;;;20.83;31.07;100596.13;4374480;32;20258;-47
2021/04/22 11:59:17;;;;;;;;;;;;;;;20.83;31.04;100596.13;4372750;32;19955;-54
2021/04/22 12:01:43;;;;;;;;;;;;;;;20.81;31.03;100589.87;4372366;32;19967;-51
2021/04/22 12:04:09;;;;;;;;;;;;;;;20.81;31.08;100592.53;4374065;32;19939;-51
2021/04/22 12:06:35;;;;;;;;;;;;;;;20.79;31.14;100585.44;4373669;32;19947;-51
2021/04/22 12:09:01;;;;;;;;;;;;;;;20.78;31.11;100591.59;4373504;32;19997;-48
2021/04/22 12:11:28;;;;;;;;;;;;;;;20.80;31.03;100583.69;4373793;32;19951;-47
2021/04/22 12:13:54;;;;;;;;;;;;;;;20.78;31.08;100581.00;4373528;32;20132;-49
2021/04/22 12:16:20;;;;;;;;;;;;;;;20.77;30.97;100573.94;4373616;32;19974;-49
2021/04/22 12:18:46;;;;;;;;;;;;;;;20.77;31.00;100583.66;4372324;32;19955;-50
2021/04/22 12:21:12;;;;;;;;;;;;;;;20.74;31.08;100579.19;4374439;32;20002;-48
2021/04/22 12:23:38;;;;;;;;;;;;;;;20.79;31.00;100572.19;4367436;32;19947;-52
2021/04/22 12:26:04;;;;;;;;;;;;;;;20.84;30.85;100579.37;4358882;32;19974;-50
2021/04/22 12:28:30;;;;;;;;;;;;;;;20.83;30.93;100582.87;4370702;32;20300;-48